Observation data for Brownfield on 12/11/2019      Previous  Date       Current Mesonet Observations  Soil Data  Daily Summary Page  Observations in Plain Language
KBWS 110600Z 17007KT M01/M05 A3034 RMK A01 T10101046  RH  077%=      5-min Rain = 0
KBWS 110605Z 18007KT M01/M05 A3034 RMK A01 T10101045  RH  077%=      5-min Rain = 0
KBWS 110610Z 18007KT M01/M05 A3034 RMK A01 T10091045  RH  077%=      5-min Rain = 0
KBWS 110615Z 18007KT M01/M05 A3034 RMK A01 T10081046  RH  076%=      5-min Rain = 0
KBWS 110620Z 17007KT M01/M05 A3033 RMK A01 T10091046  RH  076%=      5-min Rain = 0
KBWS 110625Z 18007KT M01/M05 A3033 RMK A01 T10091045  RH  077%=      5-min Rain = 0
KBWS 110630Z 18006KT M01/M04 A3033 RMK A01 T10081044  RH  077%=      5-min Rain = 0
KBWS 110635Z 18006KT M01/M04 A3034 RMK A01 T10081044  RH  077%=      5-min Rain = 0
KBWS 110640Z 18007KT M01/M04 A3034 RMK A01 T10081043  RH  077%=      5-min Rain = 0
KBWS 110645Z 18006KT M01/M04 A3034 RMK A01 T10081042  RH  078%=      5-min Rain = 0
KBWS 110650Z 18006KT M01/M04 A3034 RMK A01 T10101042  RH  079%=      5-min Rain = 0
KBWS 110655Z 18006KT M01/M04 A3034 RMK A01 T10101041  RH  080%=      5-min Rain = 0
KBWS 110700Z 19006KT M01/M04 A3034 RMK A01 T10101039  RH  081%=      5-min Rain = 0
KBWS 110705Z 19007KT M01/M04 A3034 RMK A01 T10081036  RH  082%=      5-min Rain = 0
KBWS 110710Z 19007KT M01/M03 A3034 RMK A01 T10071033  RH  083%=      5-min Rain = 0
KBWS 110715Z 19007KT M01/M03 A3034 RMK A01 T10061032  RH  083%=      5-min Rain = 0
KBWS 110720Z 20006KT M01/M03 A3033 RMK A01 T10061033  RH  083%=      5-min Rain = 0
KBWS 110725Z 20005KT M01/M03 A3033 RMK A01 T10071032  RH  084%=      5-min Rain = 0
KBWS 110730Z 20005KT M01/M03 A3033 RMK A01 T10071031  RH  085%=      5-min Rain = 0
KBWS 110735Z 20005KT M01/M03 A3033 RMK A01 T10081030  RH  085%=      5-min Rain = 0
KBWS 110740Z 21006KT M01/M03 A3033 RMK A01 T10081028  RH  087%=      5-min Rain = 0
KBWS 110745Z 21006KT M01/M02 A3033 RMK A01 T10051024  RH  088%=      5-min Rain = 0
KBWS 110750Z 22006KT M00/M02 A3034 RMK A01 T10041022  RH  088%=      5-min Rain = 0
KBWS 110755Z 21006KT M01/M02 A3033 RMK A01 T10051024  RH  088%=      5-min Rain = 0
KBWS 110800Z 21006KT M01/M03 A3033 RMK A01 T10071025  RH  088%=      5-min Rain = 0
KBWS 110805Z 21006KT M01/M03 A3033 RMK A01 T10081026  RH  088%=      5-min Rain = 0
KBWS 110810Z 21006KT M01/M03 A3033 RMK A01 T10091026  RH  089%=      5-min Rain = 0
KBWS 110815Z 21006KT M01/M03 A3034 RMK A01 T10091026  RH  089%=      5-min Rain = 0
KBWS 110820Z 22005KT M01/M03 A3034 RMK A01 T10091025  RH  089%=      5-min Rain = 0
KBWS 110825Z 22005KT M01/M03 A3034 RMK A01 T10091025  RH  090%=      5-min Rain = 0
KBWS 110830Z 22005KT M01/M03 A3034 RMK A01 T10101026  RH  089%=      5-min Rain = 0
KBWS 110835Z 22005KT M01/M03 A3034 RMK A01 T10111026  RH  090%=      5-min Rain = 0
KBWS 110840Z 22005KT M01/M03 A3033 RMK A01 T10121028  RH  090%=      5-min Rain = 0
KBWS 110845Z 22006KT M01/M03 A3033 RMK A01 T10131028  RH  090%=      5-min Rain = 0
KBWS 110850Z 22006KT M01/M03 A3033 RMK A01 T10111025  RH  091%=      5-min Rain = 0
KBWS 110855Z 21006KT M01/M02 A3033 RMK A01 T10111024  RH  091%=      5-min Rain = 0
KBWS 110900Z 17004KT M02/M03 A3033 RMK A01 T10151029  RH  091%=      5-min Rain = 0
KBWS 110905Z 18004KT M02/M03 A3033 RMK A01 T10191032  RH  091%=      5-min Rain = 0
KBWS 110910Z 18004KT M02/M03 A3033 RMK A01 T10181029  RH  092%=      5-min Rain = 0
KBWS 110915Z 19004KT M02/M03 A3033 RMK A01 T10191031  RH  092%=      5-min Rain = 0
KBWS 110920Z 16004KT M02/M03 A3033 RMK A01 T10201032  RH  092%=      5-min Rain = 0
KBWS 110925Z 16004KT M03/M04 A3033 RMK A01 T10251036  RH  092%=      5-min Rain = 0
KBWS 110930Z 15004KT M03/M04 A3033 RMK A01 T10261037  RH  093%=      5-min Rain = 0
KBWS 110935Z 15004KT M03/M04 A3033 RMK A01 T10271038  RH  093%=      5-min Rain = 0
KBWS 110940Z 16004KT M03/M04 A3033 RMK A01 T10271037  RH  093%=      5-min Rain = 0
KBWS 110945Z 15004KT M03/M04 A3033 RMK A01 T10271037  RH  093%=      5-min Rain = 0
KBWS 110950Z 15004KT M03/M04 A3033 RMK A01 T10271038  RH  093%=      5-min Rain = 0
KBWS 110955Z 16003KT M03/M04 A3033 RMK A01 T10271039  RH  092%=      5-min Rain = 0
KBWS 111000Z 15004KT M03/M04 A3033 RMK A01 T10281039  RH  092%=      5-min Rain = 0
KBWS 111005Z 15004KT M03/M04 A3033 RMK A01 T10281040  RH  092%=      5-min Rain = 0
KBWS 111010Z 17004KT M03/M04 A3033 RMK A01 T10281040  RH  092%=      5-min Rain = 0
KBWS 111015Z 17004KT M03/M04 A3033 RMK A01 T10261038  RH  092%=      5-min Rain = 0
KBWS 111020Z 17003KT M03/M04 A3033 RMK A01 T10261038  RH  092%=      5-min Rain = 0
KBWS 111025Z 17004KT M03/M04 A3033 RMK A01 T10261039  RH  091%=      5-min Rain = 0
KBWS 111030Z 18005KT M03/M04 A3033 RMK A01 T10281041  RH  091%=      5-min Rain = 0
KBWS 111035Z 18006KT M03/M04 A3033 RMK A01 T10281040  RH  091%=      5-min Rain = 0
KBWS 111040Z 18006KT M03/M04 A3033 RMK A01 T10271039  RH  092%=      5-min Rain = 0
KBWS 111045Z 18006KT M03/M04 A3033 RMK A01 T10281040  RH  092%=      5-min Rain = 0
KBWS 111050Z 19006KT M03/M04 A3033 RMK A01 T10261036  RH  093%=      5-min Rain = 0
KBWS 111055Z 18006KT M03/M04 A3033 RMK A01 T10261036  RH  093%=      5-min Rain = 0
KBWS 111100Z 18005KT M03/M04 A3033 RMK A01 T10271037  RH  093%=      5-min Rain = 0
KBWS 111105Z 18005KT M03/M04 A3033 RMK A01 T10291038  RH  094%=      5-min Rain = 0
KBWS 111110Z 19005KT M03/M04 A3032 RMK A01 T10271036  RH  094%=      5-min Rain = 0
KBWS 111115Z 19004KT M03/M03 A3033 RMK A01 T10261034  RH  095%=      5-min Rain = 0
KBWS 111120Z 18004KT M03/M03 A3033 RMK A01 T10261034  RH  095%=      5-min Rain = 0
KBWS 111125Z 19003KT M03/M03 A3033 RMK A01 T10261034  RH  095%=      5-min Rain = 0
KBWS 111130Z 20004KT M03/M03 A3032 RMK A01 T10251033  RH  095%=      5-min Rain = 0
KBWS 111135Z 22004KT M02/M03 A3033 RMK A01 T10231029  RH  096%=      5-min Rain = 0
KBWS 111140Z 22004KT M02/M03 A3033 RMK A01 T10211027  RH  096%=      5-min Rain = 0
KBWS 111145Z 23004KT M02/M03 A3033 RMK A01 T10221028  RH  096%=      5-min Rain = 0
KBWS 111150Z 23004KT M02/M03 A3033 RMK A01 T10211026  RH  097%=      5-min Rain = 0
KBWS 111155Z 23004KT M02/M03 A3033 RMK A01 T10201026  RH  097%=      5-min Rain = 0
KBWS 111200Z 23003KT M02/M03 A3033 RMK A01 T10231028  RH  097%=      5-min Rain = 0
KBWS 111205Z 24002KT M02/M03 A3033 RMK A01 T10241030  RH  097%=      5-min Rain = 0
KBWS 111210Z 23003KT M03/M03 A3033 RMK A01 T10251030  RH  097%=      5-min Rain = 0
KBWS 111215Z 23002KT M03/M03 A3033 RMK A01 T10251030  RH  097%=      5-min Rain = 0
KBWS 111220Z 23002KT M03/M03 A3033 RMK A01 T10261031  RH  097%=      5-min Rain = 0
KBWS 111225Z 24002KT M03/M03 A3034 RMK A01 T10271032  RH  097%=      5-min Rain = 0
KBWS 111230Z 24003KT M03/M03 A3034 RMK A01 T10261031  RH  097%=      5-min Rain = 0
KBWS 111235Z 24003KT M03/M03 A3034 RMK A01 T10261031  RH  097%=      5-min Rain = 0
KBWS 111240Z 23003KT M03/M03 A3034 RMK A01 T10251029  RH  097%=      5-min Rain = 0
KBWS 111245Z 21003KT M03/M03 A3034 RMK A01 T10271032  RH  097%=      5-min Rain = 0
KBWS 111250Z 22003KT M03/M03 A3034 RMK A01 T10291034  RH  097%=      5-min Rain = 0
KBWS 111255Z 23003KT M03/M03 A3034 RMK A01 T10271031  RH  097%=      5-min Rain = 0
KBWS 111300Z 24003KT M03/M03 A3035 RMK A01 T10251029  RH  098%=      5-min Rain = 0
KBWS 111305Z 24003KT M02/M03 A3035 RMK A01 T10241029  RH  098%=      5-min Rain = 0
KBWS 111310Z 23003KT M02/M03 A3035 RMK A01 T10221027  RH  098%=      5-min Rain = 0
KBWS 111315Z 24003KT M02/M03 A3035 RMK A01 T10221026  RH  098%=      5-min Rain = 0
KBWS 111320Z 24003KT M02/M03 A3035 RMK A01 T10211025  RH  098%=      5-min Rain = 0
KBWS 111325Z 23003KT M02/M02 A3035 RMK A01 T10191024  RH  098%=      5-min Rain = 0
KBWS 111330Z 22004KT M02/M02 A3035 RMK A01 T10191023  RH  098%=      5-min Rain = 0
KBWS 111335Z 21004KT M02/M03 A3035 RMK A01 T10211025  RH  098%=      5-min Rain = 0
KBWS 111340Z 22005KT M02/M03 A3035 RMK A01 T10221027  RH  098%=      5-min Rain = 0
KBWS 111345Z 21004KT M02/M03 A3035 RMK A01 T10231028  RH  098%=      5-min Rain = 0
KBWS 111350Z 20003KT M03/M03 A3035 RMK A01 T10261030  RH  098%=      5-min Rain = 0
KBWS 111355Z 19003KT M03/M04 A3035 RMK A01 T10301035  RH  097%=      5-min Rain = 0
KBWS 111400Z 21005KT M03/M04 A3035 RMK A01 T10311036  RH  097%=      5-min Rain = 0
KBWS 111405Z 21004KT M03/M03 A3035 RMK A01 T10281032  RH  098%=      5-min Rain = 0
KBWS 111410Z 21004KT M03/M03 A3035 RMK A01 T10301034  RH  098%=      5-min Rain = 0
KBWS 111415Z 22004KT M03/M03 A3035 RMK A01 T10271030  RH  098%=      5-min Rain = 0
KBWS 111420Z 22003KT M02/M02 A3035 RMK A01 T10201024  RH  098%=      5-min Rain = 0
KBWS 111425Z 23002KT M02/M02 A3036 RMK A01 T10181021  RH  098%=      5-min Rain = 0
KBWS 111430Z 21001KT M02/M02 A3036 RMK A01 T10181022  RH  098%=      5-min Rain = 0
KBWS 111435Z 20002KT M02/M02 A3036 RMK A01 T10201024  RH  098%=      5-min Rain = 0
KBWS 111440Z 21003KT M02/M02 A3036 RMK A01 T10171020  RH  098%=      5-min Rain = 0
KBWS 111445Z 21002KT M01/M02 A3036 RMK A01 T10141017  RH  098%=      5-min Rain = 0
KBWS 111450Z 20002KT M01/M01 A3036 RMK A01 T10101014  RH  098%=      5-min Rain = 0
KBWS 111455Z 20002KT M01/M01 A3036 RMK A01 T10071010  RH  099%=      5-min Rain = 0
KBWS 111500Z 19003KT M01/M01 A3036 RMK A01 T10051008  RH  098%=      5-min Rain = 0
KBWS 111505Z 20003KT M00/M01 A3036 RMK A01 T10021006  RH  098%=      5-min Rain = 0
KBWS 111510Z 22004KT 00/00 A3036 RMK A01 T000000-3  RH  098%=      5-min Rain = 0
KBWS 111515Z 21004KT M00/M01 A3036 RMK A01 T10011005  RH  098%=      5-min Rain = 0
KBWS 111520Z 22005KT 00/00 A3037 RMK A01 T00-000-4  RH  098%=      5-min Rain = 0
KBWS 111525Z 21005KT 00/M00 A3037 RMK A01 T00011003  RH  098%=      5-min Rain = 0
KBWS 111530Z 22004KT 00/00 A3037 RMK A01 T00040000  RH  098%=      5-min Rain = 0
KBWS 111535Z 22005KT 01/00 A3037 RMK A01 T00070004  RH  099%=      5-min Rain = 0
KBWS 111540Z 22005KT 01/01 A3037 RMK A01 T00100006  RH  099%=      5-min Rain = 0
KBWS 111545Z 22006KT 01/01 A3038 RMK A01 T00120009  RH  099%=      5-min Rain = 0
KBWS 111550Z 22005KT 01/01 A3038 RMK A01 T00120008  RH  099%=      5-min Rain = 0
KBWS 111555Z 20006KT 01/01 A3038 RMK A01 T00140010  RH  099%=      5-min Rain = 0
KBWS 111600Z 21006KT 02/01 A3038 RMK A01 T00160012  RH  099%=      5-min Rain = 0
KBWS 111605Z 21007KT 02/01 A3038 RMK A01 T00170013  RH  099%=      5-min Rain = 0
KBWS 111610Z 20007KT 02/02 A3039 RMK A01 T00180015  RH  099%=      5-min Rain = 0
KBWS 111615Z 20007KT 02/02 A3039 RMK A01 T00190015  RH  099%=      5-min Rain = 0
KBWS 111620Z 21007KT 02/02 A3039 RMK A01 T00190015  RH  099%=      5-min Rain = 0
KBWS 111625Z 21007KT 02/02 A3039 RMK A01 T00220018  RH  099%=      5-min Rain = 0
KBWS 111630Z 20006KT 03/02 A3039 RMK A01 T00250020  RH  099%=      5-min Rain = 0
KBWS 111635Z 19007KT 03/02 A3039 RMK A01 T00270022  RH  098%=      5-min Rain = 0
KBWS 111640Z 19008KT 03/02 A3039 RMK A01 T00270022  RH  098%=      5-min Rain = 0
KBWS 111645Z 20007KT 03/02 A3039 RMK A01 T00290024  RH  098%=      5-min Rain = 0
KBWS 111650Z 19008KT 03/02 A3039 RMK A01 T00290023  RH  097%=      5-min Rain = 0
KBWS 111655Z 20008KT 03/02 A3039 RMK A01 T00310023  RH  097%=      5-min Rain = 0
KBWS 111700Z 20007KT 03/02 A3039 RMK A01 T00310023  RH  096%=      5-min Rain = 0
KBWS 111705Z 20008KT 03/02 A3039 RMK A01 T00330024  RH  095%=      5-min Rain = 0
KBWS 111710Z 20007KT 03/02 A3039 RMK A01 T00340024  RH  095%=      5-min Rain = 0
KBWS 111715Z 20008KT 04/02 A3039 RMK A01 T00360024  RH  093%=      5-min Rain = 0
KBWS 111720Z 20008KT 04/02 A3039 RMK A01 T00360022  RH  092%=      5-min Rain = 0
KBWS 111725Z 19007KT 04/02 A3039 RMK A01 T00380024  RH  092%=      5-min Rain = 0
KBWS 111730Z 20008KT 04/02 A3039 RMK A01 T00400023  RH  090%=      5-min Rain = 0
KBWS 111735Z 20008KT 04/02 A3038 RMK A01 T00410024  RH  090%=      5-min Rain = 0
KBWS 111740Z 20008KT 05/03 A3038 RMK A01 T00450026  RH  089%=      5-min Rain = 0
KBWS 111745Z 19010KT 05/03 A3038 RMK A01 T00470025  RH  087%=      5-min Rain = 0
KBWS 111750Z 18010KT 05/02 A3038 RMK A01 T00470023  RH  086%=      5-min Rain = 0
KBWS 111755Z 18010KT 05/03 A3037 RMK A01 T00490025  RH  086%=      5-min Rain = 0
KBWS 111800Z 18010KT 05/03 A3037 RMK A01 T00500025  RH  085%=      5-min Rain = 0
KBWS 111805Z 18010KT 05/02 A3037 RMK A01 T00500024  RH  085%=      5-min Rain = 0
KBWS 111810Z 19011KT 05/03 A3037 RMK A01 T00540027  RH  084%=      5-min Rain = 0
KBWS 111815Z 19010KT 05/03 A3036 RMK A01 T00540025  RH  083%=      5-min Rain = 0
KBWS 111820Z 17011KT 05/02 A3036 RMK A01 T00510022  RH  083%=      5-min Rain = 0
KBWS 111825Z 19011KT 05/03 A3036 RMK A01 T00530025  RH  084%=      5-min Rain = 0
KBWS 111830Z 19011KT 06/03 A3036 RMK A01 T00570026  RH  082%=      5-min Rain = 0
KBWS 111835Z 19011KT 06/02 A3035 RMK A01 T00560024  RH  081%=      5-min Rain = 0
KBWS 111840Z 18010KT 06/03 A3035 RMK A01 T00580027  RH  082%=      5-min Rain = 0
KBWS 111845Z 19011KT 06/03 A3035 RMK A01 T00620029  RH  080%=      5-min Rain = 0
KBWS 111850Z 18011KT 06/03 A3034 RMK A01 T00640031  RH  081%=      5-min Rain = 0
KBWS 111855Z 19010KT 07/03 A3034 RMK A01 T00660031  RH  080%=      5-min Rain = 0
KBWS 111900Z 18011KT 06/03 A3034 RMK A01 T00630031  RH  082%=      5-min Rain = 0
KBWS 111905Z 19011KT 06/03 A3034 RMK A01 T00600032  RH  084%=      5-min Rain = 0
KBWS 111910Z 18010KT 06/03 A3034 RMK A01 T00600033  RH  084%=      5-min Rain = 0
KBWS 111915Z 20011KT 07/04 A3033 RMK A01 T00660036  RH  083%=      5-min Rain = 0
KBWS 111920Z 18011KT 07/04 A3033 RMK A01 T00690037  RH  082%=      5-min Rain = 0
KBWS 111925Z 18011KT 07/04 A3033 RMK A01 T00670036  RH  082%=      5-min Rain = 0
KBWS 111930Z 19012KT 07/04 A3033 RMK A01 T00680037  RH  082%=      5-min Rain = 0
KBWS 111935Z 20011G16KT 07/04 A3032 RMK A01 T00690037  RH  082%=      5-min Rain = 0
KBWS 111940Z 18010KT 07/04 A3032 RMK A01 T00720040  RH  082%=      5-min Rain = 0
KBWS 111945Z 18013KT 07/04 A3032 RMK A01 T00720038  RH  081%=      5-min Rain = 0
KBWS 111950Z 18013KT 07/04 A3031 RMK A01 T00710039  RH  082%=      5-min Rain = 0
KBWS 111955Z 18012KT 07/04 A3031 RMK A01 T00700038  RH  082%=      5-min Rain = 0
KBWS 112000Z 17014KT 07/04 A3031 RMK A01 T00680039  RH  083%=      5-min Rain = 0
KBWS 112005Z 17014KT 06/04 A3031 RMK A01 T00640038  RH  085%=      5-min Rain = 0
KBWS 112010Z 17014KT 06/04 A303 RMK A01 T00630038  RH  086%=      5-min Rain = 0
KBWS 112015Z 17014KT 06/04 A303 RMK A01 T00610038  RH  086%=      5-min Rain = 0
KBWS 112020Z 17013KT 06/04 A303 RMK A01 T00610038  RH  087%=      5-min Rain = 0
KBWS 112025Z 17014KT 06/04 A303 RMK A01 T00600037  RH  086%=      5-min Rain = 0
KBWS 112030Z 18013KT 06/04 A303 RMK A01 T00590036  RH  086%=      5-min Rain = 0
KBWS 112035Z 19014KT 06/04 A303 RMK A01 T00620036  RH  086%=      5-min Rain = 0
KBWS 112040Z 19012KT 06/04 A303 RMK A01 T00630037  RH  085%=      5-min Rain = 0
KBWS 112045Z 18013KT 07/04 A3029 RMK A01 T00650038  RH  085%=      5-min Rain = 0
KBWS 112050Z 18011KT 07/04 A3029 RMK A01 T00650039  RH  085%=      5-min Rain = 0
KBWS 112055Z 17014KT 07/04 A3029 RMK A01 T00660040  RH  085%=      5-min Rain = 0
KBWS 112100Z 18013KT 07/04 A3029 RMK A01 T00650039  RH  085%=      5-min Rain = 0
KBWS 112105Z 18013G18KT 07/04 A3029 RMK A01 T00650039  RH  086%=      5-min Rain = 0
KBWS 112110Z 17015KT 06/04 A3029 RMK A01 T00640039  RH  085%=      5-min Rain = 0
KBWS 112115Z 17014KT 06/04 A3028 RMK A01 T00630039  RH  086%=      5-min Rain = 0
KBWS 112120Z 18012KT 07/04 A3028 RMK A01 T00650040  RH  086%=      5-min Rain = 0
KBWS 112125Z 17014KT 07/04 A3028 RMK A01 T00650040  RH  086%=      5-min Rain = 0
KBWS 112130Z 17015KT 06/04 A3028 RMK A01 T00640041  RH  087%=      5-min Rain = 0
KBWS 112135Z 18014KT 07/04 A3028 RMK A01 T00650041  RH  087%=      5-min Rain = 0
KBWS 112140Z 19015KT 07/04 A3028 RMK A01 T00660040  RH  085%=      5-min Rain = 0
KBWS 112145Z 19015KT 07/04 A3028 RMK A01 T00670040  RH  085%=      5-min Rain = 0
KBWS 112150Z 18014KT 07/04 A3028 RMK A01 T00700041  RH  084%=      5-min Rain = 0
KBWS 112155Z 17017KT 07/04 A3028 RMK A01 T00680041  RH  085%=      5-min Rain = 0
KBWS 112200Z 18015KT 07/04 A3028 RMK A01 T00670042  RH  085%=      5-min Rain = 0
KBWS 112205Z 18015G20KT 07/04 A3027 RMK A01 T00680041  RH  084%=      5-min Rain = 0
KBWS 112210Z 18015KT 07/04 A3027 RMK A01 T00680041  RH  085%=      5-min Rain = 0
KBWS 112215Z 18016KT 07/04 A3027 RMK A01 T00670042  RH  085%=      5-min Rain = 0
KBWS 112220Z 17016KT 07/04 A3027 RMK A01 T00680042  RH  085%=      5-min Rain = 0
KBWS 112225Z 18015KT 07/04 A3027 RMK A01 T00680043  RH  086%=      5-min Rain = 0
KBWS 112230Z 18016KT 07/04 A3026 RMK A01 T00670043  RH  086%=      5-min Rain = 0
KBWS 112235Z 18016KT 07/05 A3026 RMK A01 T00670045  RH  088%=      5-min Rain = 0
KBWS 112240Z 18017KT 07/05 A3026 RMK A01 T00670045  RH  088%=      5-min Rain = 0
KBWS 112245Z 18015KT 07/05 A3026 RMK A01 T00670045  RH  088%=      5-min Rain = 0
KBWS 112250Z 18016KT 07/05 A3026 RMK A01 T00670045  RH  088%=      5-min Rain = 0
KBWS 112255Z 18014KT 07/05 A3026 RMK A01 T00670045  RH  088%=      5-min Rain = 0
KBWS 112300Z 19015KT 07/05 A3026 RMK A01 T00660045  RH  088%=      5-min Rain = 0
KBWS 112305Z 19017KT 07/05 A3026 RMK A01 T00670045  RH  088%=      5-min Rain = 0
KBWS 112310Z 18015KT 07/05 A3026 RMK A01 T00660046  RH  088%=      5-min Rain = 0
KBWS 112315Z 18014KT 07/05 A3026 RMK A01 T00660046  RH  089%=      5-min Rain = 0
KBWS 112320Z 18014KT 07/05 A3026 RMK A01 T00650047  RH  090%=      5-min Rain = 0
KBWS 112325Z 18013G18KT 07/05 A3026 RMK A01 T00650047  RH  090%=      5-min Rain = 0
KBWS 112330Z 18014G19KT 07/05 A3025 RMK A01 T00650047  RH  090%=      5-min Rain = 0
KBWS 112335Z 18014G19KT 07/05 A3025 RMK A01 T00650048  RH  091%=      5-min Rain = 0
KBWS 112340Z 18015G20KT 07/05 A3025 RMK A01 T00650048  RH  091%=      5-min Rain = 0
KBWS 112345Z 18012KT 07/05 A3025 RMK A01 T00650048  RH  090%=      5-min Rain = 0
KBWS 112350Z 18015KT 07/05 A3025 RMK A01 T00650047  RH  090%=      5-min Rain = 0
KBWS 112355Z 19015KT 07/05 A3025 RMK A01 T00650047  RH  090%=      5-min Rain = 0
KBWS 120000Z 18015KT 07/05 A3025 RMK A01 T00650047  RH  090%=      5-min Rain = 0
KBWS 120005Z 18014KT 07/05 A3025 RMK A01 T00650048  RH  091%=      5-min Rain = 0
KBWS 120010Z 19013KT 07/05 A3025 RMK A01 T00650049  RH  091%=      5-min Rain = 0
KBWS 120015Z 19015G20KT 07/05 A3025 RMK A01 T00650048  RH  090%=      5-min Rain = 0
KBWS 120020Z 19016KT 07/05 A3025 RMK A01 T00670047  RH  089%=      5-min Rain = 0
KBWS 120025Z 20014KT 07/05 A3025 RMK A01 T00670047  RH  089%=      5-min Rain = 0
KBWS 120030Z 19013KT 07/05 A3025 RMK A01 T00680048  RH  089%=      5-min Rain = 0
KBWS 120035Z 19015KT 07/05 A3025 RMK A01 T00680048  RH  089%=      5-min Rain = 0
KBWS 120040Z 19016G23KT 07/05 A3025 RMK A01 T00680048  RH  089%=      5-min Rain = 0
KBWS 120045Z 19015KT 07/05 A3024 RMK A01 T00690048  RH  088%=      5-min Rain = 0
KBWS 120050Z 18016G21KT 07/05 A3024 RMK A01 T00690048  RH  088%=      5-min Rain = 0
KBWS 120055Z 19017KT 07/05 A3025 RMK A01 T00700047  RH  087%=      5-min Rain = 0
KBWS 120100Z 18014KT 07/05 A3024 RMK A01 T00700047  RH  087%=      5-min Rain = 0
KBWS 120105Z 18014KT 07/05 A3024 RMK A01 T00700047  RH  087%=      5-min Rain = 0
KBWS 120110Z 18013G19KT 07/05 A3024 RMK A01 T00710047  RH  087%=      5-min Rain = 0
KBWS 120115Z 18013KT 07/05 A3024 RMK A01 T00710048  RH  087%=      5-min Rain = 0
KBWS 120120Z 18013KT 07/05 A3024 RMK A01 T00710049  RH  088%=      5-min Rain = 0
KBWS 120125Z 17014KT 07/05 A3024 RMK A01 T00710049  RH  088%=      5-min Rain = 0
KBWS 120130Z 17014KT 07/05 A3024 RMK A01 T00700049  RH  089%=      5-min Rain = 0
KBWS 120135Z 17015KT 07/05 A3024 RMK A01 T00700049  RH  089%=      5-min Rain = 0
KBWS 120140Z 17014G19KT 07/05 A3023 RMK A01 T00700050  RH  089%=      5-min Rain = 0
KBWS 120145Z 17017KT 07/05 A3023 RMK A01 T00710050  RH  089%=      5-min Rain = 0
KBWS 120150Z 17015G20KT 07/05 A3023 RMK A01 T00700049  RH  089%=      5-min Rain = 0
KBWS 120155Z 17015KT 07/05 A3023 RMK A01 T00690049  RH  089%=      5-min Rain = 0
KBWS 120200Z 17015KT 07/05 A3023 RMK A01 T00690049  RH  089%=      5-min Rain = 0
KBWS 120205Z 17016KT 07/05 A3023 RMK A01 T00680049  RH  090%=      5-min Rain = 0
KBWS 120210Z 18016G21KT 07/05 A3023 RMK A01 T00670049  RH  090%=      5-min Rain = 0
KBWS 120215Z 18018KT 07/05 A3023 RMK A01 T00670048  RH  090%=      5-min Rain = 0
KBWS 120220Z 18015G20KT 07/05 A3023 RMK A01 T00660047  RH  090%=      5-min Rain = 0
KBWS 120225Z 18015KT 06/05 A3023 RMK A01 T00630045  RH  090%=      5-min Rain = 0
KBWS 120230Z 17014KT 06/04 A3023 RMK A01 T00600043  RH  090%=      5-min Rain = 0
KBWS 120235Z 18013KT 06/04 A3023 RMK A01 T00580042  RH  091%=      5-min Rain = 0
KBWS 120240Z 17013KT 06/04 A3023 RMK A01 T00560041  RH  092%=      5-min Rain = 0
KBWS 120245Z 17012KT 06/04 A3023 RMK A01 T00550040  RH  092%=      5-min Rain = 0
KBWS 120250Z 18012KT 05/04 A3023 RMK A01 T00540040  RH  092%=      5-min Rain = 0
KBWS 120255Z 18012KT 05/04 A3023 RMK A01 T00540040  RH  093%=      5-min Rain = 0
KBWS 120300Z 18012KT 05/04 A3022 RMK A01 T00530040  RH  093%=      5-min Rain = 0
KBWS 120305Z 17013KT 05/04 A3022 RMK A01 T00530040  RH  093%=      5-min Rain = 0
KBWS 120310Z 16013KT 05/04 A3021 RMK A01 T00520039  RH  093%=      5-min Rain = 0
KBWS 120315Z 16012KT 05/04 A302 RMK A01 T00510039  RH  094%=      5-min Rain = 0
KBWS 120320Z 16012KT 05/04 A302 RMK A01 T00510039  RH  094%=      5-min Rain = 0
KBWS 120325Z 17011KT 05/04 A3021 RMK A01 T00500039  RH  094%=      5-min Rain = 0
KBWS 120330Z 17011KT 05/04 A3021 RMK A01 T00490038  RH  094%=      5-min Rain = 0
KBWS 120335Z 18012KT 05/04 A3022 RMK A01 T00490038  RH  094%=      5-min Rain = 0
KBWS 120340Z 18011G16KT 05/04 A3023 RMK A01 T00500038  RH  094%=      5-min Rain = 0
KBWS 120345Z 19012KT 05/04 A3023 RMK A01 T00500038  RH  094%=      5-min Rain = 0
KBWS 120350Z 19011KT 05/04 A3023 RMK A01 T00500038  RH  093%=      5-min Rain = 0
KBWS 120355Z 19011KT 05/04 A3023 RMK A01 T00490037  RH  093%=      5-min Rain = 0
KBWS 120400Z 19011KT 05/04 A3023 RMK A01 T00490036  RH  093%=      5-min Rain = 0
KBWS 120405Z 19010KT 05/04 A3023 RMK A01 T00490036  RH  093%=      5-min Rain = 0
KBWS 120410Z 20011KT 05/04 A3024 RMK A01 T00480036  RH  094%=      5-min Rain = 0
KBWS 120415Z 19010KT 05/04 A3023 RMK A01 T00470035  RH  094%=      5-min Rain = 0
KBWS 120420Z 19010KT 05/03 A3023 RMK A01 T00460034  RH  094%=      5-min Rain = 0
KBWS 120425Z 18012KT 05/04 A3022 RMK A01 T00460035  RH  094%=      5-min Rain = 0
KBWS 120430Z 19011KT 05/04 A3022 RMK A01 T00460036  RH  094%=      5-min Rain = 0
KBWS 120435Z 19012KT 05/04 A3023 RMK A01 T00460035  RH  094%=      5-min Rain = 0
KBWS 120440Z 19011G16KT 05/03 A3022 RMK A01 T00450034  RH  094%=      5-min Rain = 0
KBWS 120445Z 18013KT 05/04 A3021 RMK A01 T00450035  RH  095%=      5-min Rain = 0
KBWS 120450Z 18011KT 04/03 A3021 RMK A01 T00440034  RH  095%=      5-min Rain = 0
KBWS 120455Z 18011KT 04/03 A3021 RMK A01 T00430033  RH  095%=      5-min Rain = 0
KBWS 120500Z 18010KT 04/03 A3021 RMK A01 T00420032  RH  095%=      5-min Rain = 0
KBWS 120505Z 18010KT 04/03 A3021 RMK A01 T00410032  RH  095%=      5-min Rain = 0
KBWS 120510Z 18010KT 04/03 A3021 RMK A01 T00410032  RH  096%=      5-min Rain = 0
KBWS 120515Z 19011KT 04/03 A3022 RMK A01 T00420033  RH  096%=      5-min Rain = 0
KBWS 120520Z 19010KT 04/03 A3022 RMK A01 T00430034  RH  096%=      5-min Rain = 0
KBWS 120525Z 20009KT 04/03 A3022 RMK A01 T00430033  RH  095%=      5-min Rain = 0
KBWS 120530Z 20009KT 04/03 A3022 RMK A01 T00420033  RH  095%=      5-min Rain = 0
KBWS 120535Z 20009KT 04/03 A3022 RMK A01 T00430034  RH  095%=      5-min Rain = 0
KBWS 120540Z 20010KT 04/03 A3022 RMK A01 T00430033  RH  095%=      5-min Rain = 0
KBWS 120545Z 21010KT 04/03 A3022 RMK A01 T00430033  RH  095%=      5-min Rain = 0
KBWS 120550Z 21010KT 04/03 A3022 RMK A01 T00420033  RH  095%=      5-min Rain = 0
KBWS 120555Z 21011KT 04/03 A3021 RMK A01 T00430034  RH  096%=      5-min Rain = 0

Page generated in 0.0091 seconds.